Time;durP1;ratioP1;P1;durP2;ratioP2;P2;SDS_P1;SDS_P2;PMS_P1;PMS_P2;Temp;Humidity;BMP_temperature;BMP_pressure;BME280_temperature;BME280_humidity;BME280_pressure;Samples;Min_cycle;Max_cycle;Signal;HPM_P1;HPM_P2
2022/11/04 00:01:52;;;;;;;7.08;6.30;;;;;;;8.19;87.03;100825.28;1775736;81;20894;-84
2022/11/04 00:04:22;;;;;;;8.95;6.08;;;;;;;8.17;87.01;100823.66;1775891;81;20928;-85
2022/11/04 00:06:49;;;;;;;6.72;5.53;;;;;;;8.12;87.24;100821.27;1775925;80;20916;-85
2022/11/04 00:09:18;;;;;;;5.78;5.08;;;;;;;8.10;87.31;100823.94;1775970;80;21117;-85
2022/11/04 00:14:32;;;;;;;5.10;4.60;;;;;;;8.15;87.70;100823.72;1777799;80;20932;-85
2022/11/04 00:17:18;;;;;;;5.28;4.17;;;;;;;8.14;87.35;100818.12;1776610;81;20955;-83
2022/11/04 00:33:47;;;;;;;5.58;3.37;;;;;;;8.16;86.44;100824.56;1775801;81;20987;-83
2022/11/04 00:36:14;;;;;;;4.70;3.98;;;;;;;8.13;86.30;100822.95;1775804;81;21232;-84
2022/11/04 00:38:40;;;;;;;5.25;4.75;;;;;;;8.09;86.10;100824.88;1775109;81;20885;-85
2022/11/04 00:41:24;;;;;;;6.05;4.35;;;;;;;8.04;86.12;100825.52;1775286;80;20968;-86
2022/11/04 00:43:36;;;;;;;4.90;4.22;;;;;;;8.05;86.26;100830.31;1775170;80;21459;-86
2022/11/04 00:46:02;;;;;;;3.58;2.70;;;;;;;8.06;86.30;100830.69;1777420;80;20893;-84
2022/11/04 00:48:29;;;;;;;5.97;3.77;;;;;;;8.08;86.45;100833.61;1777814;78;21216;-84
2022/11/04 00:50:56;;;;;;;5.05;2.83;;;;;;;8.10;86.25;100829.16;1775783;78;20932;-83
2022/11/04 00:53:24;;;;;;;3.30;2.87;;;;;;;8.11;86.07;100824.78;1775266;81;20928;-83
2022/11/04 00:55:51;;;;;;;3.52;3.10;;;;;;;8.12;85.76;100821.73;1775048;80;20940;-85
2022/11/04 00:58:17;;;;;;;3.90;2.95;;;;;;;8.10;86.01;100826.55;1775255;80;20983;-84
2022/11/04 01:00:44;;;;;;;3.58;3.08;;;;;;;8.11;85.86;100831.31;1775328;81;21112;-85
2022/11/04 01:03:11;;;;;;;4.28;2.83;;;;;;;8.12;85.94;100839.55;1775185;81;20908;-85
2022/11/04 01:05:38;;;;;;;2.75;2.55;;;;;;;8.12;85.74;100838.25;1775333;81;20971;-85
2022/11/04 01:08:04;;;;;;;4.67;2.90;;;;;;;8.11;85.50;100837.84;1775425;80;20924;-85
2022/11/04 01:10:35;;;;;;;4.85;2.75;;;;;;;8.10;85.49;100839.61;1775510;81;20911;-84
2022/11/04 01:13:02;;;;;;;5.10;3.05;;;;;;;8.07;85.58;100842.38;1775196;81;21828;-84
2022/11/04 01:15:28;;;;;;;3.08;2.77;;;;;;;8.07;85.50;100842.81;1774991;80;20865;-85
2022/11/04 01:17:56;;;;;;;5.00;3.15;;;;;;;8.06;85.54;100843.28;1772355;80;20829;-84
2022/11/04 01:20:23;;;;;;;4.75;2.98;;;;;;;8.11;85.86;100846.98;1762343;81;20923;-83
2022/11/04 01:22:50;;;;;;;5.30;3.27;;;;;;;8.17;85.63;100845.86;1762468;80;20908;-84
2022/11/04 01:25:17;;;;;;;7.08;4.75;;;;;;;8.18;85.49;100848.42;1762419;81;21132;-84
2022/11/04 01:27:44;;;;;;;7.20;4.05;;;;;;;8.23;85.64;100850.81;1762899;81;21007;-83
2022/11/04 01:30:11;;;;;;;5.55;3.75;;;;;;;8.23;85.49;100850.81;1762738;81;20837;-83
2022/11/04 01:32:39;;;;;;;8.40;4.05;;;;;;;8.24;85.29;100849.41;1762465;81;20877;-84
2022/11/04 01:35:06;;;;;;;5.95;4.15;;;;;;;8.24;85.09;100848.11;1762630;81;20991;-85
2022/11/04 01:37:33;;;;;;;5.10;3.70;;;;;;;8.22;85.02;100843.87;1762868;81;21114;-85
2022/11/04 01:39:59;;;;;;;9.53;5.47;;;;;;;8.18;84.69;100845.80;1762587;81;20876;-84
2022/11/04 01:42:26;;;;;;;4.40;3.85;;;;;;;8.13;84.62;100836.01;1763034;81;20916;-84
2022/11/04 01:44:58;;;;;;;8.05;4.83;;;;;;;8.07;84.67;100837.16;1762891;81;20869;-84
2022/11/04 01:47:57;;;;;;;5.45;3.72;;;;;;;8.04;84.91;100840.35;1764650;81;20931;-82
2022/11/04 01:50:26;;;;;;;5.20;3.22;;;;;;;8.06;85.34;100846.36;1765312;79;21219;-84
2022/11/04 01:53:01;;;;;;;5.25;3.80;;;;;;;8.07;85.40;100851.52;1765292;79;20905;-83
2022/11/04 01:55:32;;;;;;;3.65;3.27;;;;;;;8.07;85.35;100854.56;1765130;81;20932;-83
2022/11/04 01:58:03;;;;;;;5.22;3.45;;;;;;;8.05;85.25;100847.29;1764660;81;20928;-83
2022/11/04 02:00:29;;;;;;;3.35;2.52;;;;;;;8.00;85.17;100847.47;1764534;80;20876;-82
2022/11/04 02:03:05;;;;;;;3.62;3.30;;;;;;;7.96;85.10;100845.94;1764060;81;21243;-83
2022/11/04 02:05:31;;;;;;;5.15;3.25;;;;;;;7.92;85.07;100846.16;1763249;81;20853;-84
2022/11/04 02:08:01;;;;;;;4.28;3.05;;;;;;;7.85;85.28;100843.81;1762578;81;20888;-84
2022/11/04 02:10:30;;;;;;;8.18;3.47;;;;;;;7.81;85.38;100847.47;1762405;81;20951;-84
2022/11/04 02:13:00;;;;;;;7.40;3.80;;;;;;;7.77;85.54;100855.51;1762746;81;20903;-84
2022/11/04 02:15:41;;;;;;;3.52;3.20;;;;;;;7.75;85.72;100858.17;1762863;80;21209;-84
2022/11/04 02:18:17;;;;;;;4.17;3.58;;;;;;;7.76;85.84;100857.72;1764339;80;21050;-84
2022/11/04 02:21:25;;;;;;;4.50;3.72;;;;;;;7.78;85.97;100868.94;1764957;79;20999;-84
2022/11/04 02:24:22;;;;;;;4.72;3.67;;;;;;;7.76;86.00;100871.64;1762427;81;20888;-85
2022/11/04 02:27:06;;;;;;;5.28;3.92;;;;;;;7.76;86.14;100875.55;1762732;81;20833;-83
2022/11/04 02:30:00;;;;;;;5.25;3.85;;;;;;;7.73;86.15;100876.13;1762904;81;21772;-84
2022/11/04 02:32:59;;;;;;;5.85;4.45;;;;;;;7.70;86.38;100869.30;1762376;81;20888;-84
2022/11/04 02:35:42;;;;;;;6.75;4.90;;;;;;;7.70;86.55;100878.89;1762387;81;20916;-84
2022/11/04 02:38:29;;;;;;;5.65;4.05;;;;;;;7.68;86.63;100869.34;1762843;80;20928;-84
2022/11/04 02:41:16;;;;;;;6.42;4.53;;;;;;;7.70;86.79;100871.06;1763154;81;20980;-84
2022/11/04 02:44:09;;;;;;;7.53;5.25;;;;;;;7.68;86.85;100869.34;1762612;81;21137;-83
2022/11/04 02:46:49;;;;;;;5.85;4.83;;;;;;;7.65;86.92;100876.02;1762450;80;20916;-85
2022/11/04 02:49:26;;;;;;;7.42;4.95;;;;;;;7.64;87.06;100874.77;1762732;81;21377;-84
2022/11/04 02:52:04;;;;;;;7.75;5.10;;;;;;;7.63;87.17;100866.56;1759876;81;21361;-85
2022/11/04 02:54:49;;;;;;;5.80;4.90;;;;;;;7.59;87.16;100869.75;1761834;80;20876;-84
2022/11/04 02:57:20;;;;;;;8.28;5.37;;;;;;;7.55;87.08;100864.27;1762652;81;21232;-85
2022/11/04 03:00:05;;;;;;;9.63;5.62;;;;;;;7.47;86.98;100862.02;1762338;81;21476;-85
2022/11/04 03:02:36;;;;;;;7.37;5.87;;;;;;;7.43;86.88;100866.97;1762465;81;20872;-85
2022/11/04 03:05:03;;;;;;;7.12;5.97;;;;;;;7.38;87.07;100874.59;1762477;81;20849;-85
2022/11/04 03:07:34;;;;;;;6.78;6.00;;;;;;;7.33;87.09;100874.78;1762674;80;21315;-85
2022/11/04 03:10:14;;;;;;;9.10;6.37;;;;;;;7.32;87.26;100886.61;1762409;81;21155;-84
2022/11/04 03:12:49;;;;;;;7.20;6.47;;;;;;;7.26;87.32;100883.78;1745572;81;20844;-85
2022/11/04 03:15:22;;;;;;;11.90;9.18;;;;;;;7.21;87.57;100893.11;1762427;81;20971;-84
2022/11/04 03:17:57;;;;;;;13.55;9.85;;;;;;;7.19;87.68;100893.63;1762274;80;21310;-84
2022/11/04 03:20:26;;;;;;;10.23;9.18;;;;;;;7.15;87.79;100888.14;1774631;80;21365;-84
2022/11/04 03:22:58;;;;;;;11.75;9.40;;;;;;;7.13;87.89;100899.55;1774932;80;21038;-85
2022/11/04 03:25:26;;;;;;;15.83;9.45;;;;;;;7.08;87.95;100897.59;1774962;80;20848;-84
2022/11/04 03:28:06;;;;;;;13.75;11.20;;;;;;;7.05;88.20;100899.42;1775247;80;20833;-84
2022/11/04 03:30:42;;;;;;;11.90;10.55;;;;;;;7.05;88.51;100903.80;1774558;80;20885;-85
2022/11/04 03:33:26;;;;;;;8.88;7.92;;;;;;;7.03;88.53;100897.33;1736006;82;20940;-85
2022/11/04 03:35:53;;;;;;;9.28;7.87;;;;;;;7.00;88.63;100893.98;1709932;84;21282;-84
2022/11/04 03:38:21;;;;;;;13.43;8.83;;;;;;;6.98;88.81;100894.50;1737953;82;20858;-84
2022/11/04 03:40:47;;;;;;;8.90;8.00;;;;;;;6.98;89.17;100899.71;1744099;82;21233;-85
2022/11/04 03:43:18;;;;;;;13.53;10.85;;;;;;;7.01;89.42;100897.00;1738341;82;20956;-86
2022/11/04 03:45:46;;;;;;;12.82;9.45;;;;;;;7.03;89.52;100903.00;1737285;82;21446;-83
2022/11/04 03:48:13;;;;;;;12.30;9.90;;;;;;;7.03;89.50;100899.09;1711704;84;21246;-85
2022/11/04 03:50:50;;;;;;;11.30;8.83;;;;;;;7.04;89.48;100902.08;1711799;80;20893;-85
2022/11/04 03:53:19;;;;;;;10.48;8.65;;;;;;;7.03;89.48;100899.09;1738164;81;21037;-86
2022/11/04 03:56:16;;;;;;;15.23;9.98;;;;;;;7.01;89.53;100891.33;1738062;82;20901;-85
2022/11/04 03:59:07;;;;;;;13.00;10.40;;;;;;;7.02;89.66;100888.25;1738372;81;20877;-85
2022/11/04 04:01:55;;;;;;;13.50;10.80;;;;;;;7.03;89.77;100890.81;1738451;82;21164;-86
2022/11/04 04:04:36;;;;;;;12.20;10.15;;;;;;;7.04;89.84;100892.48;1736079;82;20933;-87
2022/11/04 04:07:17;;;;;;;13.48;8.85;;;;;;;7.04;89.83;100902.92;1775533;81;21023;-85
2022/11/04 04:10:39;;;;;;;10.43;7.97;;;;;;;7.06;89.89;100906.78;1775406;80;20932;-84
2022/11/04 04:13:45;;;;;;;11.03;8.25;;;;;;;7.06;89.88;100906.31;1682106;85;20988;-85
2022/11/04 04:16:19;;;;;;;9.65;8.18;;;;;;;7.07;89.91;100907.19;1681832;85;21702;-85
2022/11/04 04:18:56;;;;;;;11.18;9.00;;;;;;;7.08;89.90;100910.64;1766092;80;20992;-85
2022/11/04 04:21:29;;;;;;;12.25;8.33;;;;;;;7.07;89.88;100909.80;1740798;82;21377;-84
2022/11/04 04:29:27;;;;;;;;;;;;;;;7.02;89.81;100913.86;1784268;80;21120;-85
2022/11/04 04:31:56;;;;;;;11.75;8.23;;;;;;;7.03;89.86;100920.80;1782110;80;20073;-82
2022/11/04 04:34:30;;;;;;;13.50;8.40;;;;;;;7.01;89.83;100925.68;1783593;80;20896;-84
2022/11/04 04:37:10;;;;;;;12.85;9.38;;;;;;;7.00;89.87;100929.18;1783213;80;20967;-84
2022/11/04 04:45:33;;;;;;;9.83;8.08;;;;;;;6.97;89.98;100936.67;1743603;80;20861;-84
2022/11/04 04:48:00;;;;;;;12.53;8.70;;;;;;;6.98;90.04;100938.39;1783350;78;20975;-84
2022/11/04 04:50:37;;;;;;;13.88;8.40;;;;;;;6.99;89.96;100940.53;1783482;78;20896;-83
2022/11/04 04:53:03;;;;;;;10.72;7.85;;;;;;;6.97;89.97;100936.67;1783421;78;20932;-84
2022/11/04 04:55:32;;;;;;;10.28;7.78;;;;;;;6.96;89.84;100954.55;1783115;78;21208;-85
2022/11/04 04:57:59;;;;;;;12.73;8.38;;;;;;;6.94;89.88;100958.13;1783228;78;20869;-84
2022/11/04 05:00:28;;;;;;;13.58;8.35;;;;;;;6.92;89.91;100959.95;1783257;78;20838;-84
2022/11/04 05:02:54;;;;;;;9.78;7.53;;;;;;;6.90;90.02;100956.09;1782642;78;20983;-85
2022/11/04 05:05:21;;;;;;;9.60;8.28;;;;;;;6.92;90.21;100953.43;1780868;80;20923;-84
2022/11/04 05:07:47;;;;;;;11.95;7.92;;;;;;;6.93;90.31;100958.56;1781392;80;21238;-85
2022/11/04 05:10:15;;;;;;;14.30;9.20;;;;;;;6.95;90.25;100955.44;1781083;80;21459;-86
2022/11/04 05:15:28;;;;;;;15.58;11.35;;;;;;;6.98;90.24;100967.07;1781193;80;26500;-86
2022/11/04 05:17:58;;;;;;;9.48;6.62;;;;;;;7.01;90.27;100962.19;1781935;80;20991;-86
2022/11/04 05:20:25;;;;;;;9.83;7.17;;;;;;;7.03;90.27;100958.60;1783150;78;21128;-83
2022/11/04 05:22:53;;;;;;;12.28;7.15;;;;;;;7.06;90.23;100966.29;1782920;80;20916;-86
2022/11/04 05:25:20;;;;;;;13.58;8.15;;;;;;;7.09;90.19;100970.53;1781353;80;21408;-85
2022/11/04 05:27:47;;;;;;;10.88;8.08;;;;;;;7.12;90.09;100972.20;1781942;80;20936;-84
2022/11/04 05:30:14;;;;;;;12.45;8.35;;;;;;;7.15;90.00;100974.20;1782473;80;20872;-87
2022/11/04 05:32:41;;;;;;;8.53;7.00;;;;;;;7.18;90.02;100979.75;1781036;80;21920;-84
2022/11/04 05:35:09;;;;;;;10.03;7.47;;;;;;;7.21;89.94;100978.34;1781036;80;20889;-85
2022/11/04 05:37:35;;;;;;;12.18;7.35;;;;;;;7.25;89.87;100982.53;1781193;80;20978;-84
2022/11/04 05:40:03;;;;;;;13.58;7.67;;;;;;;7.28;89.85;100984.16;1781163;80;21282;-86
2022/11/04 05:42:30;;;;;;;9.80;7.53;;;;;;;7.31;89.74;100990.09;1781079;80;20881;-84
2022/11/04 05:44:58;;;;;;;14.43;7.97;;;;;;;7.34;89.63;100993.89;1780788;80;21137;-85
2022/11/04 05:47:24;;;;;;;15.53;8.83;;;;;;;7.38;89.59;100997.20;1749507;81;20999;-86
2022/11/04 05:49:51;;;;;;;12.55;9.10;;;;;;;7.41;89.44;101000.55;1741769;82;20862;-86
2022/11/04 05:52:20;;;;;;;10.30;8.53;;;;;;;7.43;89.30;101006.56;1781546;78;20900;-86
2022/11/04 05:54:47;;;;;;;10.60;7.78;;;;;;;7.45;89.23;101009.96;1780918;80;20991;-86
2022/11/04 05:57:13;;;;;;;12.18;8.88;;;;;;;7.48;89.22;101012.43;1782049;80;21338;-87
2022/11/04 05:59:41;;;;;;;12.45;9.20;;;;;;;7.51;89.07;101004.93;1781701;80;20857;-84
2022/11/04 06:02:07;;;;;;;11.73;8.15;;;;;;;7.55;88.95;101014.33;1783425;78;20967;-85
2022/11/04 06:04:34;;;;;;;16.32;7.62;;;;;;;7.58;88.86;101012.92;1783256;78;20869;-86
2022/11/04 06:07:02;;;;;;;12.13;7.70;;;;;;;7.63;88.87;101017.48;1783417;78;20864;-85
2022/11/04 06:09:38;;;;;;;24.50;9.48;;;;;;;7.67;88.65;101023.44;1743598;80;21179;-85
2022/11/04 06:12:11;;;;;;;12.33;8.25;;;;;;;7.72;88.48;101024.09;1743528;80;20952;-87
2022/11/04 06:14:37;;;;;;;11.65;7.90;;;;;;;7.76;88.28;101024.36;1783335;78;21000;-86
2022/11/04 06:17:14;;;;;;;12.33;8.28;;;;;;;7.81;88.15;101015.03;1751301;77;20920;-85
2022/11/04 06:19:42;;;;;;;12.18;8.95;;;;;;;7.86;88.11;101011.75;1781630;78;20936;-86
2022/11/04 06:22:12;;;;;;;12.13;8.85;;;;;;;7.93;87.89;101012.34;1777593;78;21224;-86
2022/11/04 06:24:39;;;;;;;11.90;8.35;;;;;;;8.00;87.62;101015.08;1777595;78;20876;-86
2022/11/04 06:27:06;;;;;;;12.45;9.28;;;;;;;8.06;87.55;101020.89;1777509;78;20959;-87
2022/11/04 06:29:33;;;;;;;12.28;8.88;;;;;;;8.13;87.61;101024.08;1776327;81;20865;-86
2022/11/04 06:32:03;;;;;;;9.73;8.25;;;;;;;8.18;87.22;101007.77;1776249;81;20849;-87
2022/11/04 06:34:31;;;;;;;12.70;9.20;;;;;;;8.24;87.20;101021.01;1775408;80;21393;-85
2022/11/04 06:36:58;;;;;;;14.03;10.95;;;;;;;8.29;87.06;101009.45;1756241;81;21513;-85
2022/11/04 06:39:25;;;;;;;14.63;10.70;;;;;;;8.34;86.63;101009.25;1736287;82;20975;-88
2022/11/04 06:41:51;;;;;;;15.20;10.15;;;;;;;8.41;86.35;101015.08;1775643;81;20877;-85
2022/11/04 06:44:18;;;;;;;13.70;10.48;;;;;;;8.48;86.00;101006.04;1736202;82;21000;-86
2022/11/04 06:46:46;;;;;;;13.50;10.23;;;;;;;8.59;85.87;101010.79;1776004;80;20932;-84
2022/11/04 06:49:17;;;;;;;14.85;9.88;;;;;;;8.69;85.43;101015.53;1736321;82;20980;-86
2022/11/04 06:51:46;;;;;;;13.98;10.43;;;;;;;8.82;85.16;101007.95;1710746;83;20941;-83
2022/11/04 06:54:13;;;;;;;12.98;9.18;;;;;;;8.97;84.93;101005.09;1777402;78;20959;-82
2022/11/04 06:56:43;;;;;;;12.45;9.25;;;;;;;9.11;84.43;101001.81;1777782;78;20880;-85
2022/11/04 06:59:17;;;;;;;12.68;9.00;;;;;;;9.27;83.94;101000.61;1777422;79;21430;-83
2022/11/04 07:01:44;;;;;;;12.57;8.27;;;;;;;9.41;83.11;100999.48;1778007;80;20904;-87
2022/11/04 07:04:10;;;;;;;10.78;9.13;;;;;;;9.50;82.43;100998.19;1775736;80;21594;-88
2022/11/04 07:06:37;;;;;;;13.88;8.78;;;;;;;9.60;81.91;100994.64;1776278;80;20932;-86
2022/11/04 07:09:04;;;;;;;13.58;8.80;;;;;;;9.75;81.74;100989.95;1749753;81;20920;-87
2022/11/04 07:11:32;;;;;;;12.43;8.55;;;;;;;9.95;81.44;100990.24;1776080;80;21176;-85
2022/11/04 07:13:59;;;;;;;11.35;9.23;;;;;;;10.14;80.47;100994.08;1776216;80;20976;-87
2022/11/04 07:16:28;;;;;;;13.15;10.00;;;;;;;10.23;79.50;100988.83;1776340;81;20881;-85
2022/11/04 07:18:55;;;;;;;12.45;9.43;;;;;;;10.27;78.97;100989.02;1736977;82;20979;-85
2022/11/04 07:21:22;;;;;;;14.83;9.70;;;;;;;10.31;78.36;100984.03;1739005;82;20878;-85
2022/11/04 07:23:50;;;;;;;15.30;10.32;;;;;;;10.34;77.95;100987.35;1775434;81;21764;-86
2022/11/04 07:26:17;;;;;;;13.22;10.00;;;;;;;10.39;77.37;101011.17;1736221;82;20889;-85
2022/11/04 07:28:46;;;;;;;14.58;9.95;;;;;;;10.45;76.79;101035.73;1775849;81;20940;-85
2022/11/04 07:31:17;;;;;;;12.65;9.18;;;;;;;10.41;77.04;101039.47;1775681;81;20936;-87
2022/11/04 07:33:48;;;;;;;14.40;8.33;;;;;;;10.36;76.76;101035.78;1775704;80;21475;-87
2022/11/04 07:36:16;;;;;;;12.33;9.25;;;;;;;10.24;77.03;101033.28;1775353;79;21133;-84
2022/11/04 07:38:44;;;;;;;13.05;9.98;;;;;;;10.15;77.28;101039.00;1775128;80;20916;-85
2022/11/04 07:41:57;;;;;;;11.95;10.38;;;;;;;10.09;77.16;101038.00;1817046;78;22518;-85
2022/11/04 07:44:24;;;;;;;14.40;10.05;;;;;;;9.91;76.85;101038.47;1790201;80;20920;-84
2022/11/04 07:46:50;;;;;;;12.33;9.68;;;;;;;9.79;77.04;101041.26;1790234;80;21077;-83
2022/11/04 07:49:19;;;;;;;12.43;9.73;;;;;;;9.71;77.53;101040.31;1790650;80;20979;-84
2022/11/04 07:51:47;;;;;;;15.08;10.32;;;;;;;9.66;77.75;101041.02;1790264;80;20958;-85
2022/11/04 07:54:13;;;;;;;13.48;10.10;;;;;;;9.61;77.87;101046.11;1790073;80;21479;-86
2022/11/04 07:56:41;;;;;;;16.37;10.08;;;;;;;9.53;78.05;101043.84;1790582;80;20971;-83
2022/11/04 07:59:09;;;;;;;12.15;9.93;;;;;;;9.44;78.38;101046.45;1790702;80;21166;-85
2022/11/04 08:01:36;;;;;;;12.68;9.73;;;;;;;9.38;78.77;101050.66;1790902;79;20979;-85
2022/11/04 08:04:05;;;;;;;12.20;9.68;;;;;;;9.37;79.17;101049.45;1790926;80;20892;-85
2022/11/04 08:06:32;;;;;;;15.90;10.18;;;;;;;9.34;79.20;101052.59;1791235;80;20954;-85
2022/11/04 08:09:05;;;;;;;13.45;9.93;;;;;;;9.37;79.41;101049.45;1792315;77;20853;-87
2022/11/04 08:11:32;;;;;;;12.88;9.23;;;;;;;9.40;79.34;101059.29;1791071;80;21247;-85
2022/11/04 08:13:58;;;;;;;14.10;9.25;;;;;;;9.49;79.73;101059.31;1786529;79;20939;-85
2022/11/04 08:16:28;;;;;;;11.28;9.38;;;;;;;9.54;79.18;101064.73;1736532;80;20900;-86
2022/11/04 08:19:00;;;;;;;15.23;10.43;;;;;;;9.60;78.68;101058.33;1727945;80;20959;-83
2022/11/04 08:21:28;;;;;;;14.18;10.75;;;;;;;9.66;78.86;101057.19;1678091;77;20919;-86
2022/11/04 08:23:55;;;;;;;15.00;11.25;;;;;;;9.75;78.61;101056.73;1648424;87;21392;-85
2022/11/04 08:26:24;;;;;;;14.73;9.60;;;;;;;9.83;78.03;101059.83;1608778;87;20945;-85
2022/11/04 08:28:52;;;;;;;15.98;9.80;;;;;;;9.88;77.76;101054.36;1649099;87;20961;-86
2022/11/04 08:31:23;;;;;;;11.83;10.43;;;;;;;9.90;77.40;101061.21;1648402;87;20977;-86
2022/11/04 08:33:52;;;;;;;11.48;9.55;;;;;;;9.92;77.50;101055.91;1648527;86;20921;-87
2022/11/04 08:36:31;;;;;;;13.50;9.88;;;;;;;9.95;77.69;101052.65;1649031;87;21494;-85
2022/11/04 08:39:03;;;;;;;13.45;9.48;;;;;;;10.05;77.86;101053.48;1649007;86;20997;-84
2022/11/04 08:41:31;;;;;;;13.45;10.50;;;;;;;10.16;77.88;101053.34;1650319;87;20909;-86
2022/11/04 08:43:59;;;;;;;11.03;9.53;;;;;;;10.27;77.49;101056.73;1648407;87;20945;-85
2022/11/04 08:46:29;;;;;;;9.93;8.85;;;;;;;10.39;77.16;101063.14;1647752;86;21055;-85
2022/11/04 08:48:58;;;;;;;11.78;10.20;;;;;;;10.53;76.72;101055.85;1647741;86;21185;-86
2022/11/04 08:51:26;;;;;;;10.45;9.15;;;;;;;10.62;76.05;101060.60;1647600;87;21590;-84
2022/11/04 08:53:53;;;;;;;13.62;8.00;;;;;;;10.71;75.60;101056.64;1647506;87;21359;-83
2022/11/04 08:56:26;;;;;;;11.43;7.97;;;;;;;10.84;75.26;101052.44;1647945;86;20957;-84
2022/11/04 08:58:53;;;;;;;13.17;8.20;;;;;;;11.00;75.31;101056.38;1648430;86;20913;-85
2022/11/04 09:01:22;;;;;;;12.98;8.40;;;;;;;11.12;74.79;101057.03;1648153;86;21823;-87
2022/11/04 09:03:50;;;;;;;8.68;6.87;;;;;;;11.24;74.79;101050.72;1647628;87;20910;-86
2022/11/04 09:06:24;;;;;;;8.78;7.03;;;;;;;11.35;74.38;101044.39;1647640;87;20968;-86
2022/11/04 09:08:55;;;;;;;10.10;7.25;;;;;;;11.47;74.08;101040.22;1647520;86;20965;-84
2022/11/04 09:11:21;;;;;;;8.60;7.67;;;;;;;11.64;73.19;101042.73;1648291;86;20925;-85
2022/11/04 09:13:49;;;;;;;8.85;6.37;;;;;;;11.76;72.52;101049.91;1630199;87;21486;-84
2022/11/04 09:16:17;;;;;;;8.70;6.58;;;;;;;11.78;71.83;101047.17;1648190;87;21168;-88
2022/11/04 09:18:45;;;;;;;8.25;6.62;;;;;;;11.76;71.79;101047.29;1647689;87;20885;-85
2022/11/04 09:21:12;;;;;;;9.50;7.03;;;;;;;11.72;71.11;101049.70;1646528;87;20966;-86
2022/11/04 09:23:41;;;;;;;10.03;6.87;;;;;;;11.64;70.31;101047.14;1645576;87;21097;-86
2022/11/04 09:26:12;;;;;;;8.90;6.58;;;;;;;11.53;70.49;101049.91;1645503;87;20929;-85
2022/11/04 09:28:40;;;;;;;10.20;6.78;;;;;;;11.39;70.58;101044.13;1645456;87;21004;-85
2022/11/04 09:31:13;;;;;;;7.72;5.28;;;;;;;11.30;70.79;101040.72;1645457;86;20941;-86
2022/11/04 09:33:40;;;;;;;7.55;6.40;;;;;;;11.26;71.09;101033.94;1643827;87;20996;-86
2022/11/04 09:36:08;;;;;;;8.45;5.85;;;;;;;11.29;71.03;101039.00;1643462;87;21485;-86
2022/11/04 09:38:36;;;;;;;13.48;7.58;;;;;;;11.31;70.91;101029.73;1643940;87;21144;-86
2022/11/04 09:41:52;;;;;;;10.55;7.30;;;;;;;11.32;71.28;101034.91;1644373;87;21028;-86
2022/11/04 09:44:44;;;;;;;9.53;6.53;;;;;;;11.39;71.64;101027.53;1643953;87;21000;-86
2022/11/04 09:47:10;;;;;;;17.55;15.72;;;;;;;11.55;72.20;101032.75;1644202;87;20949;-84
2022/11/04 09:49:40;;;;;;;11.88;9.05;;;;;;;11.68;71.91;101031.11;1645018;87;20972;-85
2022/11/04 09:52:18;;;;;;;8.58;7.78;;;;;;;11.82;71.51;101023.73;1645671;87;21344;-85
2022/11/04 09:55:10;;;;;;;10.58;8.20;;;;;;;11.98;71.09;101019.76;1645114;87;20926;-85
2022/11/04 09:57:38;;;;;;;7.08;6.37;;;;;;;12.13;70.50;101012.27;1644970;87;20981;-86
2022/11/04 10:00:07;;;;;;;6.28;5.67;;;;;;;12.30;69.63;101021.78;1645032;87;20957;-84
2022/11/04 10:03:05;;;;;;;11.00;5.92;;;;;;;12.36;68.98;101017.47;1644760;87;20988;-84
2022/11/04 10:05:56;;;;;;;9.18;6.97;;;;;;;12.41;67.80;101016.70;1644949;87;21290;-86
2022/11/04 10:09:04;;;;;;;5.37;4.87;;;;;;;12.42;67.87;101015.75;1645704;87;20889;-84
2022/11/04 10:11:51;;;;;;;7.20;5.78;;;;;;;12.51;67.24;101018.77;1645567;87;20897;-86
2022/11/04 10:14:41;;;;;;;6.62;5.45;;;;;;;12.68;65.91;101014.62;1645018;87;20929;-84
2022/11/04 10:17:18;;;;;;;5.83;5.03;;;;;;;12.82;65.62;101008.48;1645196;86;20921;-85
2022/11/04 10:20:30;;;;;;;5.70;4.97;;;;;;;12.93;65.40;101014.39;1645377;86;22182;-86
2022/11/04 10:23:21;;;;;;;6.00;5.37;;;;;;;12.99;64.91;101017.95;1655304;86;21035;-84
2022/11/04 10:25:55;;;;;;;5.42;4.90;;;;;;;13.10;64.35;101010.22;1655635;86;21105;-88
2022/11/04 10:28:34;;;;;;;7.67;5.78;;;;;;;13.20;64.09;101006.50;1655034;86;20873;-87
2022/11/04 10:31:01;;;;;;;10.40;6.53;;;;;;;13.25;63.76;101009.23;1653717;86;20905;-85
2022/11/04 10:33:34;;;;;;;7.20;5.28;;;;;;;13.36;63.70;101007.25;1628474;86;21286;-85
2022/11/04 10:36:07;;;;;;;;;;;;;;;13.48;62.84;101006.42;1657465;86;20901;-86
2022/11/04 10:38:41;;;;;;;6.12;4.80;;;;;;;13.65;61.66;100998.73;1633370;88;20112;-86
2022/11/04 10:41:25;;;;;;;7.53;5.00;;;;;;;13.65;61.66;100998.73;1655101;86;21016;-85
2022/11/04 10:43:59;;;;;;;6.10;4.50;;;;;;;13.79;61.76;101000.43;1655093;86;20953;-85
2022/11/04 10:46:36;;;;;;;6.72;4.70;;;;;;;13.89;61.34;100996.23;1654371;86;21762;-86
2022/11/04 10:49:45;;;;;;;5.75;4.97;;;;;;;13.90;60.82;100991.80;1647723;86;21490;-84
2022/11/04 10:52:11;;;;;;;7.95;5.42;;;;;;;13.86;60.28;100980.61;1654683;86;21394;-85
2022/11/04 10:54:46;;;;;;;5.83;4.42;;;;;;;13.80;60.02;100976.22;1628236;86;21034;-85
2022/11/04 10:57:20;;;;;;;4.65;4.22;;;;;;;13.81;59.77;100987.16;1628140;86;20940;-85
2022/11/04 10:59:54;;;;;;;7.40;4.50;;;;;;;13.81;59.70;100986.67;1649178;86;21898;-86
2022/11/04 11:02:43;;;;;;;6.22;5.00;;;;;;;13.78;59.54;100983.39;1654518;86;20973;-85
2022/11/04 11:05:22;;;;;;;6.10;5.15;;;;;;;13.74;59.19;100985.41;1654645;86;20917;-85
2022/11/04 11:07:54;;;;;;;6.12;5.10;;;;;;;13.69;59.03;100979.58;1654690;86;21152;-84
2022/11/04 11:10:27;;;;;;;6.92;5.03;;;;;;;13.60;58.56;100984.99;1654577;86;20917;-85
2022/11/04 11:13:05;;;;;;;6.80;5.10;;;;;;;13.52;58.46;100987.31;1654899;86;20976;-85
2022/11/04 11:15:36;;;;;;;6.35;5.45;;;;;;;13.41;58.53;100988.50;1654658;86;20953;-84
2022/11/04 11:18:20;;;;;;;9.93;6.10;;;;;;;13.28;58.96;100983.19;1654734;86;20897;-85
2022/11/04 11:20:53;;;;;;;6.75;5.72;;;;;;;13.17;59.15;100979.06;1654500;86;21047;-85
2022/11/04 11:23:41;;;;;;;;;;;;;;;13.09;59.68;100976.91;1628950;86;20920;-86
2022/11/04 11:26:13;;;;;;;7.42;5.65;;;;;;;13.06;59.66;100974.48;1632916;88;21331;-84
2022/11/04 11:28:40;;;;;;;6.28;5.60;;;;;;;13.04;60.17;100975.05;1654353;86;21477;-86
2022/11/04 11:31:13;;;;;;;9.33;5.50;;;;;;;13.02;60.06;100963.78;1628814;86;21000;-86
2022/11/04 11:33:53;;;;;;;6.95;5.50;;;;;;;13.01;60.27;100966.89;1654698;86;21010;-84
2022/11/04 11:36:28;;;;;;;6.40;5.70;;;;;;;13.06;60.48;100962.64;1626086;86;21493;-85
2022/11/04 11:39:04;;;;;;;6.15;5.22;;;;;;;13.16;60.50;100966.38;1654209;86;21185;-85
2022/11/04 11:41:35;;;;;;;5.90;5.12;;;;;;;13.20;60.12;100961.25;1654644;86;20945;-86
2022/11/04 11:44:34;;;;;;;4.97;4.47;;;;;;;13.25;59.51;100963.13;1654694;86;21464;-86
2022/11/04 11:47:04;;;;;;;5.72;5.22;;;;;;;13.27;59.19;100957.30;1654879;86;20960;-86
2022/11/04 11:49:35;;;;;;;6.03;4.97;;;;;;;13.30;59.55;100958.91;1654628;86;20917;-84
2022/11/04 11:52:31;;;;;;;7.10;4.60;;;;;;;13.37;59.35;100963.30;1654921;86;21249;-85
2022/11/04 11:55:12;;;;;;;6.67;4.40;;;;;;;13.41;58.95;100966.11;1618798;86;20929;-83
2022/11/04 11:57:50;;;;;;;8.10;5.87;;;;;;;13.40;59.08;100963.09;1621242;86;21006;-84
2022/11/04 12:00:19;;;;;;;7.67;6.78;;;;;;;13.33;58.78;100968.39;1654677;86;21262;-85
2022/11/04 12:03:07;;;;;;;5.95;5.35;;;;;;;13.26;58.98;100970.55;1655536;86;21016;-83
2022/11/04 12:05:44;;;;;;;7.37;5.87;;;;;;;13.14;58.72;100973.97;1656548;86;21806;-85
2022/11/04 12:08:42;;;;;;;7.37;5.83;;;;;;;12.98;58.89;100974.12;1654609;86;20972;-84
2022/11/04 12:11:43;;;;;;;6.70;5.95;;;;;;;12.90;59.46;100969.85;1654606;86;20925;-85
2022/11/04 12:14:19;;;;;;;7.50;6.53;;;;;;;12.87;60.03;100966.91;1654883;86;21367;-85
2022/11/04 12:16:54;;;;;;;5.37;4.75;;;;;;;12.90;59.63;100973.80;1654666;86;20949;-86
2022/11/04 12:19:30;;;;;;;8.08;6.20;;;;;;;12.89;59.71;100970.78;1654127;86;20893;-85
2022/11/04 12:22:05;;;;;;;9.90;6.90;;;;;;;12.91;59.85;100970.20;1651773;86;20921;-83
2022/11/04 12:24:38;;;;;;;13.18;6.37;;;;;;;12.95;60.01;100975.66;1645175;86;20906;-85
2022/11/04 12:27:29;;;;;;;5.75;4.95;;;;;;;13.02;60.04;100979.58;1645727;87;20968;-83